createdAt,value
2022-11-21T00:00:32.220Z,3.24
2022-11-21T00:03:02.408Z,3.67
2022-11-21T00:05:30.180Z,4.10
2022-11-21T00:07:57.404Z,3.49
2022-11-21T00:10:24.865Z,3.61
2022-11-21T00:12:58.155Z,3.79
2022-11-21T00:15:25.643Z,3.61
2022-11-21T00:17:52.920Z,3.10
2022-11-21T00:20:20.615Z,3.15
2022-11-21T00:22:47.452Z,3.71
2022-11-21T00:25:14.531Z,4.12
2022-11-21T00:27:41.796Z,3.45
2022-11-21T00:30:13.518Z,3.40
2022-11-21T00:32:40.367Z,3.03
2022-11-21T00:35:07.543Z,3.51
2022-11-21T00:37:34.452Z,4.14
2022-11-21T00:40:01.466Z,3.90
2022-11-21T00:42:28.324Z,3.32
2022-11-21T00:47:30.738Z,4.02
2022-11-21T00:49:57.417Z,4.44
2022-11-21T00:52:24.198Z,4.71
2022-11-21T00:54:51.738Z,4.55
2022-11-21T00:57:18.465Z,4.54
2022-11-21T00:59:46.118Z,4.64
2022-11-21T01:02:14.043Z,4.29
2022-11-21T01:04:40.878Z,4.84
2022-11-21T01:07:07.585Z,4.99
2022-11-21T01:09:34.380Z,4.91
2022-11-21T01:12:01.006Z,4.46
2022-11-21T01:14:28.260Z,4.55
2022-11-21T01:16:55.177Z,4.13
2022-11-21T01:19:21.869Z,4.16
2022-11-21T01:21:48.572Z,3.64
2022-11-21T01:24:15.258Z,3.24
2022-11-21T01:26:42.039Z,2.74
2022-11-21T01:29:09.077Z,2.95
2022-11-21T01:31:36.327Z,3.35
2022-11-21T01:34:03.399Z,3.92
2022-11-21T01:36:34.167Z,4.19
2022-11-21T01:39:02.061Z,4.13
2022-11-21T01:41:31.551Z,3.56
2022-11-21T01:43:58.718Z,4.04
2022-11-21T01:46:26.256Z,4.07
2022-11-21T01:48:59.336Z,4.36
2022-11-21T01:51:31.337Z,4.48
2022-11-21T01:54:17.797Z,4.61
2022-11-21T01:56:50.468Z,4.80
2022-11-21T01:59:23.702Z,4.80
2022-11-21T02:01:52.418Z,4.84
2022-11-21T02:04:19.237Z,4.90
2022-11-21T02:06:46.027Z,4.80
2022-11-21T02:09:13.018Z,5.01
2022-11-21T02:11:46.448Z,5.18
2022-11-21T02:14:13.759Z,5.26
2022-11-21T02:16:42.138Z,5.41
2022-11-21T02:19:10.998Z,5.29
2022-11-21T02:21:47.228Z,5.31
2022-11-21T02:24:16.998Z,5.43
2022-11-21T02:26:44.846Z,5.72
2022-11-21T02:29:12.666Z,5.78
2022-11-21T02:31:39.327Z,5.63
2022-11-21T02:34:06.766Z,5.51
2022-11-21T02:36:41.840Z,5.38
2022-11-21T02:39:15.706Z,5.65
2022-11-21T02:41:55.107Z,5.77
2022-11-21T02:44:29.736Z,5.72
2022-11-21T02:46:56.849Z,5.62
2022-11-21T02:49:30.517Z,5.50
2022-11-21T02:51:57.177Z,5.52
2022-11-21T02:54:23.828Z,5.31
2022-11-21T02:56:50.446Z,5.37
2022-11-21T02:59:17.063Z,4.96
2022-11-21T03:01:43.658Z,4.84
2022-11-21T03:04:10.367Z,3.97
2022-11-21T03:06:37.057Z,3.32
2022-11-21T03:09:03.748Z,3.64
2022-11-21T03:11:32.297Z,4.24
2022-11-21T03:13:58.979Z,4.75
2022-11-21T03:16:26.210Z,5.09
2022-11-21T03:18:53.172Z,5.21
2022-11-21T03:21:19.892Z,5.25
2022-11-21T03:23:46.553Z,4.85
2022-11-21T03:26:13.144Z,4.86
2022-11-21T03:28:59.906Z,4.10
2022-11-21T03:31:30.858Z,3.74
2022-11-21T03:33:57.512Z,3.08
2022-11-21T03:36:24.274Z,3.19
2022-11-21T03:38:50.993Z,3.40
2022-11-21T03:41:30.194Z,2.73
2022-11-21T03:43:58.102Z,3.30
2022-11-21T03:46:24.764Z,3.01
2022-11-21T03:48:51.584Z,3.02
2022-11-21T03:51:19.712Z,3.16
2022-11-21T03:53:46.854Z,2.82
2022-11-21T03:56:14.023Z,2.84
2022-11-21T03:58:42.913Z,3.59
2022-11-21T04:01:15.339Z,3.17
2022-11-21T04:03:42.905Z,3.64
2022-11-21T04:06:10.645Z,4.10
2022-11-21T04:08:46.381Z,2.90
2022-11-21T04:11:13.157Z,4.05
2022-11-21T04:13:59.969Z,4.19
2022-11-21T04:16:46.578Z,4.23
2022-11-21T04:19:13.479Z,4.13
2022-11-21T04:21:40.178Z,3.72
2022-11-21T04:24:07.251Z,4.08
2022-11-21T04:26:34.179Z,4.36
2022-11-21T04:29:01.048Z,4.25
2022-11-21T04:31:27.786Z,3.94
2022-11-21T04:33:54.507Z,3.38
2022-11-21T04:36:21.158Z,3.63
2022-11-21T04:38:48.025Z,3.81
2022-11-21T04:41:14.749Z,3.10
2022-11-21T04:43:41.408Z,3.63
2022-11-21T04:46:13.440Z,3.54
2022-11-21T04:48:40.232Z,3.00
2022-11-21T04:51:26.881Z,3.34
2022-11-21T04:54:13.559Z,1.75
2022-11-21T04:56:43.215Z,2.31
2022-11-21T04:59:12.336Z,2.99
2022-11-21T05:01:39.050Z,2.98
2022-11-21T05:04:06.361Z,2.96
2022-11-21T05:06:33.124Z,1.85
2022-11-21T05:08:59.757Z,2.27
2022-11-21T05:11:45.217Z,2.12
2022-11-21T05:14:13.038Z,2.14
2022-11-21T05:16:39.640Z,2.52
2022-11-21T05:19:07.714Z,2.04
2022-11-21T05:21:43.714Z,1.80
2022-11-21T05:24:10.864Z,2.64
2022-11-21T05:26:42.970Z,2.50
2022-11-21T05:29:09.746Z,2.88
2022-11-21T05:31:39.077Z,2.47
2022-11-21T05:34:05.898Z,3.54
2022-11-21T05:36:32.941Z,3.69
2022-11-21T05:38:59.751Z,3.94
2022-11-21T05:41:26.421Z,4.16
2022-11-21T05:43:53.132Z,3.48
2022-11-21T05:46:20.805Z,3.73
2022-11-21T05:48:48.564Z,3.57
2022-11-21T05:51:15.977Z,3.87
2022-11-21T05:53:43.656Z,4.30
2022-11-21T05:56:11.838Z,4.32
2022-11-21T05:58:39.766Z,4.42
2022-11-21T06:01:07.825Z,4.63
2022-11-21T06:03:54.748Z,4.66
2022-11-21T06:06:24.819Z,4.70
2022-11-21T06:09:02.895Z,4.64
2022-11-21T06:11:32.353Z,3.39
2022-11-21T06:13:59.171Z,4.25
2022-11-21T06:16:31.291Z,4.36
2022-11-21T06:18:58.876Z,4.05
2022-11-21T06:21:28.703Z,4.29
2022-11-21T06:23:56.704Z,4.33
2022-11-21T06:26:28.400Z,4.73
2022-11-21T06:28:55.637Z,4.82
2022-11-21T06:31:24.000Z,5.22
2022-11-21T06:33:54.784Z,5.19
2022-11-21T06:36:22.028Z,5.25
2022-11-21T06:38:49.298Z,5.14
2022-11-21T06:41:17.803Z,5.28
2022-11-21T06:43:45.020Z,5.61
2022-11-21T06:46:12.530Z,5.45
2022-11-21T06:48:39.800Z,5.50
2022-11-21T06:51:07.559Z,5.27
2022-11-21T06:53:34.654Z,5.25
2022-11-21T06:56:02.352Z,5.08
2022-11-21T06:58:29.919Z,5.02
2022-11-21T07:00:56.871Z,5.11
2022-11-21T07:03:24.041Z,5.24
2022-11-21T07:05:53.268Z,5.56
2022-11-21T07:08:21.071Z,5.52
2022-11-21T07:11:22.924Z,5.77
2022-11-21T07:13:39.821Z,5.75
2022-11-21T07:16:30.574Z,5.91
2022-11-21T07:19:17.709Z,6.06
2022-11-21T07:21:44.683Z,6.20
2022-11-21T07:24:11.771Z,6.13
2022-11-21T07:26:38.518Z,4.99
2022-11-21T07:29:05.323Z,4.96
2022-11-21T07:31:32.098Z,5.42
2022-11-21T07:33:58.943Z,5.47
2022-11-21T07:36:25.961Z,5.00
2022-11-21T07:38:52.721Z,5.32
2022-11-21T07:41:19.527Z,4.87
2022-11-21T07:43:46.352Z,5.02
2022-11-21T07:46:13.118Z,4.63
2022-11-21T07:48:39.891Z,4.95
2022-11-21T07:51:06.662Z,4.65
2022-11-21T07:53:33.413Z,5.42
2022-11-21T07:56:00.366Z,5.26
2022-11-21T07:58:27.217Z,4.96
2022-11-21T08:00:54.097Z,4.75
2022-11-21T08:03:21.100Z,5.09
2022-11-21T08:05:47.969Z,5.05
2022-11-21T08:08:15.098Z,4.70
2022-11-21T08:10:46.429Z,4.01
2022-11-21T08:13:13.826Z,4.31
2022-11-21T08:15:43.326Z,4.69
2022-11-21T08:18:11.589Z,4.95
2022-11-21T08:20:38.510Z,4.94
2022-11-21T08:23:06.348Z,4.54
2022-11-21T08:25:34.113Z,4.08
2022-11-21T08:28:02.951Z,5.22
2022-11-21T08:30:30.570Z,5.13
2022-11-21T08:33:01.193Z,4.40
2022-11-21T08:35:28.592Z,4.39
2022-11-21T08:38:00.149Z,4.42
2022-11-21T08:40:27.741Z,4.47
2022-11-21T08:43:01.641Z,4.81
2022-11-21T08:45:28.871Z,4.87
2022-11-21T08:47:55.980Z,5.35
2022-11-21T08:50:23.520Z,5.85
2022-11-21T08:52:50.729Z,5.82
2022-11-21T08:55:17.490Z,6.33
2022-11-21T08:57:44.224Z,5.98
2022-11-21T09:00:13.032Z,6.62
2022-11-21T09:02:39.832Z,6.98
2022-11-21T09:05:06.950Z,7.07
2022-11-21T09:07:33.981Z,6.97
2022-11-21T09:10:00.752Z,6.88
2022-11-21T09:12:33.551Z,7.25
2022-11-21T09:15:19.328Z,7.28
2022-11-21T09:18:04.208Z,7.39
2022-11-21T09:20:38.402Z,7.55
2022-11-21T09:23:06.250Z,7.26
2022-11-21T09:25:33.264Z,7.18
2022-11-21T09:28:01.410Z,7.22
2022-11-21T09:30:28.468Z,7.01
2022-11-21T09:32:59.489Z,7.02
2022-11-21T09:35:26.291Z,7.42
2022-11-21T09:37:53.241Z,7.43
2022-11-21T09:40:20.311Z,8.08
2022-11-21T09:43:02.669Z,8.01
2022-11-21T09:45:41.027Z,8.13
2022-11-21T09:48:24.018Z,8.50
2022-11-21T09:50:54.406Z,7.80
2022-11-21T09:53:26.612Z,7.81
2022-11-21T09:56:00.036Z,7.82
2022-11-21T09:58:36.424Z,8.19
2022-11-21T10:01:04.254Z,8.24
2022-11-21T10:03:33.793Z,8.69
2022-11-21T10:06:21.100Z,8.74
2022-11-21T10:08:54.023Z,8.52
2022-11-21T10:11:20.836Z,8.60
2022-11-21T10:13:47.621Z,8.03
2022-11-21T10:16:17.449Z,7.69
2022-11-21T10:19:01.472Z,8.35
2022-11-21T10:21:40.851Z,8.73
2022-11-21T10:24:22.954Z,8.99
2022-11-21T10:26:49.654Z,8.61
2022-11-21T10:29:26.681Z,8.88
2022-11-21T10:31:56.263Z,8.75
2022-11-21T10:34:25.887Z,9.17
2022-11-21T10:36:55.766Z,9.30
2022-11-21T10:39:41.652Z,9.44
2022-11-21T10:42:11.570Z,9.33
2022-11-21T10:44:57.006Z,9.25
2022-11-21T10:47:28.109Z,9.36
2022-11-21T10:50:01.019Z,9.41
2022-11-21T10:52:31.378Z,9.56
2022-11-21T10:55:06.766Z,9.51
2022-11-21T10:57:37.040Z,9.84
2022-11-21T11:00:13.102Z,9.91
2022-11-21T11:03:05.042Z,9.79
2022-11-21T11:05:33.082Z,9.79
2022-11-21T11:08:04.598Z,10.07
2022-11-21T11:10:32.269Z,10.02
2022-11-21T11:13:44.544Z,9.96
2022-11-21T11:16:10.188Z,10.34
2022-11-21T11:18:41.589Z,10.60
2022-11-21T11:21:17.650Z,10.77
2022-11-21T11:23:44.590Z,10.86
2022-11-21T11:26:22.881Z,10.50
2022-11-21T11:28:50.428Z,10.41
2022-11-21T11:31:17.303Z,10.63
2022-11-21T11:33:51.738Z,10.39
2022-11-21T11:36:39.737Z,9.97
2022-11-21T11:39:26.497Z,8.19
2022-11-21T11:42:30.988Z,8.63
2022-11-21T11:45:31.529Z,7.42
2022-11-21T11:48:02.731Z,7.74
2022-11-21T11:50:32.572Z,8.13
2022-11-21T11:53:06.346Z,8.93
2022-11-21T11:55:44.470Z,8.67
2022-11-21T11:58:29.729Z,8.54
2022-11-21T12:01:05.825Z,8.87
2022-11-21T12:03:58.133Z,8.49
2022-11-21T12:06:46.826Z,8.43
2022-11-21T12:09:22.310Z,7.92
2022-11-21T12:12:07.500Z,7.96
2022-11-21T12:15:07.938Z,8.22
2022-11-21T12:17:37.565Z,7.31
2022-11-21T12:20:12.258Z,7.45
2022-11-21T12:22:39.648Z,7.55
2022-11-21T12:25:14.328Z,8.17
2022-11-21T12:27:43.458Z,8.54
2022-11-21T12:30:23.531Z,8.92
2022-11-21T12:33:08.260Z,9.39
2022-11-21T12:35:47.175Z,9.58
2022-11-21T12:38:17.835Z,9.80
2022-11-21T12:41:00.121Z,10.16
2022-11-21T12:43:36.925Z,10.18
2022-11-21T12:46:21.356Z,10.53
2022-11-21T12:49:22.903Z,10.86
2022-11-21T12:52:21.384Z,10.97
2022-11-21T12:54:57.448Z,10.87
2022-11-21T12:57:31.542Z,11.10
2022-11-21T12:59:58.873Z,11.21
2022-11-21T13:02:44.409Z,10.75
2022-11-21T13:05:13.420Z,11.04
2022-11-21T13:07:40.971Z,10.43
2022-11-21T13:10:13.210Z,10.43
2022-11-21T13:12:50.251Z,10.81
2022-11-21T13:15:38.650Z,10.45
2022-11-21T13:18:14.916Z,10.66
2022-11-21T13:20:47.110Z,10.10
2022-11-21T13:23:32.483Z,10.45
2022-11-21T13:25:59.459Z,10.43
2022-11-21T13:28:31.023Z,10.84
2022-11-21T13:31:00.835Z,11.14
2022-11-21T13:33:39.702Z,10.66
2022-11-21T13:36:08.010Z,9.38
2022-11-21T13:38:53.116Z,9.61
2022-11-21T13:42:13.599Z,10.07
2022-11-21T13:44:44.286Z,10.31
2022-11-21T13:47:26.735Z,10.39
2022-11-21T13:50:06.327Z,10.72
2022-11-21T13:52:32.982Z,10.95
2022-11-21T13:55:16.202Z,9.71
2022-11-21T13:58:00.330Z,9.38
2022-11-21T14:00:32.591Z,9.40
2022-11-21T14:03:17.873Z,8.81
2022-11-21T14:05:47.770Z,9.75
2022-11-21T14:08:25.187Z,9.30
2022-11-21T14:10:53.093Z,9.28
2022-11-21T14:13:34.809Z,9.61
2022-11-21T14:16:04.550Z,9.53
2022-11-21T14:18:32.578Z,9.81
2022-11-21T14:21:00.926Z,9.87
2022-11-21T14:23:32.720Z,9.91
2022-11-21T14:26:03.838Z,9.99
2022-11-21T14:28:30.541Z,9.96
2022-11-21T14:30:58.247Z,10.46
2022-11-21T14:33:28.018Z,9.73
2022-11-21T14:36:14.590Z,9.64
2022-11-21T14:38:45.531Z,9.74
2022-11-21T14:41:32.528Z,9.47
2022-11-21T14:43:59.190Z,9.52
2022-11-21T14:46:27.225Z,8.98
2022-11-21T14:48:54.535Z,8.78
2022-11-21T14:51:23.218Z,8.49
2022-11-21T14:53:51.147Z,8.49
2022-11-21T14:56:23.596Z,9.03
2022-11-21T14:58:51.428Z,8.82
2022-11-21T15:01:24.505Z,8.98
2022-11-21T15:03:58.476Z,9.07
2022-11-21T15:06:26.825Z,9.09
2022-11-21T15:10:05.739Z,8.36
2022-11-21T15:12:05.855Z,7.52
2022-11-21T15:14:36.436Z,7.15
2022-11-21T15:17:05.441Z,7.70
2022-11-21T15:19:35.263Z,8.13
2022-11-21T15:22:04.430Z,8.60
2022-11-21T15:24:42.633Z,8.73
2022-11-21T15:27:24.638Z,8.77
2022-11-21T15:30:21.555Z,8.66
2022-11-21T15:33:07.147Z,7.97
2022-11-21T15:35:52.599Z,8.25
2022-11-21T15:38:25.364Z,8.42
2022-11-21T15:41:02.307Z,7.68
2022-11-21T15:43:38.631Z,7.36
2022-11-21T15:46:12.045Z,7.24
2022-11-21T15:48:38.852Z,7.46
2022-11-21T15:51:05.537Z,7.53
2022-11-21T15:53:32.218Z,7.57
2022-11-21T15:55:59.055Z,7.08
2022-11-21T15:58:25.801Z,6.74
2022-11-21T16:00:52.583Z,6.27
2022-11-21T16:03:19.320Z,6.26
2022-11-21T16:05:46.019Z,6.87
2022-11-21T16:08:13.145Z,6.72
2022-11-21T16:10:39.832Z,6.94
2022-11-21T16:13:06.519Z,6.74
2022-11-21T16:15:34.543Z,6.54
2022-11-21T16:18:01.442Z,6.53
2022-11-21T16:20:29.059Z,7.04
2022-11-21T16:22:56.027Z,7.21
2022-11-21T16:25:22.757Z,6.76
2022-11-21T16:27:49.558Z,6.87
2022-11-21T16:30:16.365Z,6.76
2022-11-21T16:32:43.037Z,7.19
2022-11-21T16:35:09.912Z,7.09
2022-11-21T16:37:36.616Z,7.28
2022-11-21T16:40:03.849Z,7.36
2022-11-21T16:42:31.497Z,7.46
2022-11-21T16:44:58.157Z,7.07
2022-11-21T16:47:25.038Z,6.53
2022-11-21T16:49:51.986Z,6.34
2022-11-21T16:52:19.145Z,6.05
2022-11-21T16:54:47.009Z,6.63
2022-11-21T16:57:14.048Z,6.97
2022-11-21T16:59:43.164Z,5.76
2022-11-21T17:02:10.348Z,5.38
2022-11-21T17:04:37.554Z,6.31
2022-11-21T17:07:04.531Z,6.51
2022-11-21T17:09:31.360Z,6.45
2022-11-21T17:11:58.252Z,6.64
2022-11-21T17:14:25.229Z,5.75
2022-11-21T17:16:52.800Z,6.41
2022-11-21T17:19:19.780Z,6.33
2022-11-21T17:21:47.120Z,6.01
2022-11-21T17:24:14.206Z,5.77
2022-11-21T17:26:41.350Z,6.16
2022-11-21T17:29:09.435Z,5.90
2022-11-21T17:31:42.150Z,6.22
2022-11-21T17:34:09.774Z,6.22
2022-11-21T17:36:36.527Z,6.39
2022-11-21T17:39:03.367Z,6.20
2022-11-21T17:41:30.291Z,6.52
2022-11-21T17:43:57.596Z,6.56
2022-11-21T17:46:25.851Z,6.74
2022-11-21T17:48:57.097Z,7.02
2022-11-21T17:51:26.868Z,6.80
2022-11-21T17:53:53.703Z,6.79
2022-11-21T17:56:24.556Z,6.61
2022-11-21T17:58:52.009Z,5.94
2022-11-21T18:01:19.706Z,6.37
2022-11-21T18:03:54.306Z,6.10
2022-11-21T18:06:21.171Z,5.71
2022-11-21T18:08:48.684Z,5.58
2022-11-21T18:11:16.769Z,5.24
2022-11-21T18:13:44.146Z,5.57
2022-11-21T18:16:15.166Z,5.65
2022-11-21T18:18:42.197Z,6.31
2022-11-21T18:21:13.608Z,6.36
2022-11-21T18:23:40.626Z,6.07
2022-11-21T18:26:14.710Z,5.96
2022-11-21T18:28:42.045Z,5.82
2022-11-21T18:31:08.805Z,6.04
2022-11-21T18:33:36.697Z,5.86
2022-11-21T18:36:04.317Z,5.75
2022-11-21T18:38:50.301Z,5.51
2022-11-21T18:41:26.216Z,6.16
2022-11-21T18:43:53.977Z,6.31
2022-11-21T18:46:21.417Z,6.13
2022-11-21T18:51:37.476Z,6.75
2022-11-21T18:54:07.504Z,6.94
2022-11-21T18:56:37.823Z,6.71
2022-11-21T18:59:06.125Z,7.14
2022-11-21T19:01:33.741Z,7.22
2022-11-21T19:04:06.707Z,7.32
2022-11-21T19:06:37.968Z,7.44
2022-11-21T19:09:05.135Z,7.42
2022-11-21T19:11:32.175Z,7.57
2022-11-21T19:14:00.609Z,7.51
2022-11-21T19:16:34.476Z,7.36
2022-11-21T19:21:48.666Z,6.88
2022-11-21T19:24:16.756Z,6.48
2022-11-21T19:26:44.178Z,6.85
2022-11-21T19:29:15.705Z,6.78
2022-11-21T19:31:45.633Z,6.66
2022-11-21T19:34:14.805Z,6.86
2022-11-21T19:36:42.291Z,6.27
2022-11-21T19:39:09.375Z,6.51
2022-11-21T19:41:40.168Z,6.08
2022-11-21T19:44:24.320Z,6.13
2022-11-21T19:46:51.564Z,5.92
2022-11-21T19:49:39.654Z,5.64
2022-11-21T19:52:07.428Z,5.57
2022-11-21T19:54:35.367Z,5.77
2022-11-21T19:57:12.542Z,5.68
2022-11-21T19:59:54.478Z,6.12
2022-11-21T20:02:22.019Z,5.92
2022-11-21T20:05:09.327Z,6.25
2022-11-21T20:07:36.157Z,6.00
2022-11-21T20:10:03.495Z,6.20
2022-11-21T20:12:30.438Z,6.12
2022-11-21T20:14:57.130Z,5.44
2022-11-21T20:17:23.826Z,5.42
2022-11-21T20:19:51.949Z,5.98
2022-11-21T20:22:19.055Z,5.47
2022-11-21T20:24:51.448Z,5.82
2022-11-21T20:27:18.502Z,5.70
2022-11-21T20:29:45.260Z,5.98
2022-11-21T20:32:12.286Z,6.33
2022-11-21T20:34:39.068Z,5.88
2022-11-21T20:37:05.921Z,5.99
2022-11-21T20:39:32.856Z,5.97
2022-11-21T20:42:00.002Z,5.95
2022-11-21T20:45:20.391Z,5.58
2022-11-21T20:47:16.900Z,6.09
2022-11-21T20:49:43.672Z,6.26
2022-11-21T20:54:57.346Z,6.33
2022-11-21T20:57:24.166Z,6.10
2022-11-21T20:59:50.948Z,6.22
2022-11-21T21:02:17.720Z,6.34
2022-11-21T21:04:44.455Z,6.47
2022-11-21T21:07:11.316Z,6.30
2022-11-21T21:09:38.084Z,6.14
2022-11-21T21:12:05.860Z,6.43
2022-11-21T21:14:32.601Z,6.68
2022-11-21T21:16:59.399Z,6.60
2022-11-21T21:19:26.125Z,6.30
2022-11-21T21:21:52.846Z,6.10
2022-11-21T21:24:19.517Z,6.57
2022-11-21T21:26:47.500Z,6.87
2022-11-21T21:29:15.987Z,6.77
2022-11-21T21:31:47.081Z,6.47
2022-11-21T21:34:17.037Z,6.97
2022-11-21T21:36:43.828Z,7.42
2022-11-21T21:39:10.578Z,7.44
2022-11-21T21:41:40.268Z,7.61
2022-11-21T21:44:07.147Z,7.25
2022-11-21T21:46:34.075Z,6.95
2022-11-21T21:49:00.851Z,6.90
2022-11-21T21:51:28.870Z,7.15
2022-11-21T21:53:56.957Z,7.18
2022-11-21T21:56:24.918Z,7.39
2022-11-21T21:58:51.915Z,7.24
2022-11-21T22:01:20.726Z,6.76
2022-11-21T22:03:47.537Z,6.64
2022-11-21T22:06:15.102Z,7.13
2022-11-21T22:08:42.367Z,7.21
2022-11-21T22:11:10.710Z,7.28
2022-11-21T22:13:38.278Z,7.16
2022-11-21T22:16:06.417Z,7.19
2022-11-21T22:18:33.106Z,7.39
2022-11-21T22:21:00.147Z,7.31
2022-11-21T22:23:26.949Z,7.54
2022-11-21T22:25:57.276Z,7.86
2022-11-21T22:28:24.446Z,8.12
2022-11-21T22:30:59.916Z,7.58
2022-11-21T22:33:27.045Z,7.05
2022-11-21T22:35:58.828Z,7.62
2022-11-21T22:38:25.466Z,7.58
2022-11-21T22:40:52.280Z,7.35
2022-11-21T22:43:19.030Z,7.81
2022-11-21T22:45:45.765Z,7.46
2022-11-21T22:48:12.866Z,7.84
2022-11-21T22:50:43.330Z,8.13
2022-11-21T22:53:09.946Z,8.23
2022-11-21T22:55:36.668Z,8.47
2022-11-21T22:58:03.634Z,8.26
2022-11-21T23:00:30.386Z,8.16
2022-11-21T23:02:58.628Z,8.37
2022-11-21T23:05:25.498Z,7.67
2022-11-21T23:07:52.216Z,7.92
2022-11-21T23:10:19.117Z,7.29
2022-11-21T23:12:45.786Z,7.53
2022-11-21T23:15:12.473Z,7.57
2022-11-21T23:17:39.374Z,7.12
2022-11-21T23:20:06.266Z,7.19
2022-11-21T23:22:33.006Z,7.58
2022-11-21T23:24:59.745Z,7.73
2022-11-21T23:27:26.371Z,7.66
2022-11-21T23:29:53.057Z,7.50
2022-11-21T23:32:19.747Z,7.69
2022-11-21T23:34:46.436Z,7.40
2022-11-21T23:37:13.117Z,6.27
2022-11-21T23:39:39.862Z,6.89
2022-11-21T23:42:06.556Z,7.08
2022-11-21T23:44:33.246Z,6.26
2022-11-21T23:46:59.948Z,6.64
2022-11-21T23:49:26.937Z,7.03
2022-11-21T23:51:53.818Z,6.80
2022-11-21T23:54:20.717Z,6.09
2022-11-21T23:56:47.399Z,6.10
2022-11-21T23:59:14.057Z,6.54
